Time;durP1;ratioP1;P1;durP2;ratioP2;P2;SDS_P1;SDS_P2;PMS_P1;PMS_P2;Temp;Humidity;BMP_temperature;BMP_pressure;BME280_temperature;BME280_humidity;BME280_pressure;Samples;Min_cycle;Max_cycle;Signal;HPM_P1;HPM_P2
2022/12/07 00:01:39;;;;;;;30.37;12.00;;;;;;;1.18;100.00;101724.50;4995874;28;20018;-88
2022/12/07 00:04:06;;;;;;;26.43;10.83;;;;;;;1.12;100.00;101725.19;5013819;28;20283;-87
2022/12/07 00:06:37;;;;;;;20.40;10.95;;;;;;;1.05;100.00;101717.97;4994603;28;20030;-88
2022/12/07 00:09:04;;;;;;;19.13;10.95;;;;;;;0.97;100.00;101714.53;5011592;28;20032;-88
2022/12/07 00:11:30;;;;;;;23.92;11.68;;;;;;;0.94;100.00;101728.09;5012265;28;20037;-88
2022/12/07 00:13:58;;;;;;;20.88;10.52;;;;;;;0.91;100.00;101729.25;5010590;28;20122;-88
2022/12/07 00:16:27;;;;;;;19.20;10.30;;;;;;;0.84;100.00;101729.09;5013487;28;20014;-89
2022/12/07 00:18:53;;;;;;;20.97;11.23;;;;;;;0.77;100.00;101722.03;5013304;28;20304;-87
2022/12/07 00:21:23;;;;;;;22.60;10.52;;;;;;;0.72;100.00;101727.81;5013065;28;20030;-87
2022/12/07 00:23:49;;;;;;;18.70;10.50;;;;;;;0.63;100.00;101719.09;5009101;28;20329;-87
2022/12/07 00:26:27;;;;;;;24.35;10.63;;;;;;;0.57;100.00;101712.69;4993970;28;20026;-87
2022/12/07 00:28:55;;;;;;;22.40;10.13;;;;;;;0.56;100.00;101707.56;5005755;28;20034;-87
2022/12/07 00:31:23;;;;;;;21.17;11.40;;;;;;;0.49;100.00;101706.63;5012715;28;20277;-88
2022/12/07 00:33:49;;;;;;;22.33;10.65;;;;;;;0.51;100.00;101702.00;5008360;28;20030;-88
2022/12/07 00:36:17;;;;;;;25.70;11.55;;;;;;;0.50;100.00;101703.00;4993807;28;20379;-88
2022/12/07 00:38:42;;;;;;;21.80;11.70;;;;;;;0.48;100.00;101704.97;5005015;28;20402;-88
2022/12/07 00:41:12;;;;;;;23.70;11.70;;;;;;;0.47;100.00;101698.06;4996339;28;20302;-88
2022/12/07 00:43:38;;;;;;;25.02;11.32;;;;;;;0.43;100.00;101703.66;4996558;28;20026;-89
2022/12/07 00:46:04;;;;;;;24.15;12.27;;;;;;;0.44;100.00;101704.50;5012881;28;20026;-89
2022/12/07 00:48:30;;;;;;;25.38;11.70;;;;;;;0.44;100.00;101702.69;5013212;28;20032;-88
2022/12/07 00:50:56;;;;;;;27.43;11.57;;;;;;;0.50;100.00;101710.91;5012382;28;20033;-89
2022/12/07 00:53:21;;;;;;;28.70;12.40;;;;;;;0.53;100.00;101700.84;5012502;28;20026;-89
2022/12/07 00:55:47;;;;;;;28.43;12.23;;;;;;;0.59;100.00;101709.88;5007529;28;20026;-88
2022/12/07 00:58:12;;;;;;;25.23;12.47;;;;;;;0.63;100.00;101703.28;4993650;28;20077;-88
2022/12/07 01:00:43;;;;;;;28.07;12.53;;;;;;;0.65;100.00;101701.31;5002825;28;20292;-89
2022/12/07 01:03:11;;;;;;;22.45;11.63;;;;;;;0.64;100.00;101704.13;5011703;28;20061;-88
2022/12/07 01:05:36;;;;;;;23.50;12.25;;;;;;;0.58;100.00;101695.88;5012520;28;20030;-88
2022/12/07 01:08:02;;;;;;;23.37;11.67;;;;;;;0.52;100.00;101695.75;5012636;28;20065;-88
2022/12/07 01:10:30;;;;;;;24.80;12.00;;;;;;;0.50;100.00;101692.44;5012385;28;20552;-88
2022/12/07 01:12:56;;;;;;;26.33;12.68;;;;;;;0.50;100.00;101695.09;4996363;28;20037;-88
2022/12/07 01:15:21;;;;;;;29.73;13.38;;;;;;;0.48;100.00;101695.25;4993873;28;20034;-88
2022/12/07 01:17:46;;;;;;;27.53;11.90;;;;;;;0.48;100.00;101699.69;5009403;28;20037;-88
2022/12/07 01:20:12;;;;;;;33.20;11.67;;;;;;;0.42;100.00;101704.66;4994366;28;20084;-88
2022/12/07 01:22:39;;;;;;;26.85;12.02;;;;;;;0.42;100.00;101698.56;5015858;28;20030;-89
2022/12/07 01:25:06;;;;;;;28.95;11.95;;;;;;;0.42;100.00;101698.56;5016289;28;20113;-88
2022/12/07 01:27:32;;;;;;;24.10;12.55;;;;;;;0.45;100.00;101700.88;5009860;28;20030;-89
2022/12/07 01:29:58;;;;;;;33.38;13.20;;;;;;;0.53;100.00;101702.66;4993477;28;20423;-89
2022/12/07 01:32:23;;;;;;;27.97;12.73;;;;;;;0.58;100.00;101703.81;5003578;28;20120;-88
2022/12/07 01:34:48;;;;;;;24.73;12.57;;;;;;;0.66;100.00;101697.66;5013018;28;20034;-90
2022/12/07 01:37:14;;;;;;;30.37;12.67;;;;;;;0.75;100.00;101704.53;5012708;28;20149;-87
2022/12/07 01:39:39;;;;;;;28.80;12.70;;;;;;;0.82;100.00;101707.31;5011611;28;20040;-87
2022/12/07 01:42:05;;;;;;;29.37;12.53;;;;;;;0.89;100.00;101710.13;5012295;28;20026;-88
2022/12/07 01:44:31;;;;;;;31.57;13.63;;;;;;;1.02;100.00;101707.75;4994831;28;20301;-88
2022/12/07 01:47:02;;;;;;;34.92;12.95;;;;;;;1.16;100.00;101700.09;4992150;28;20029;-88
2022/12/07 01:49:45;;;;;;;30.37;13.67;;;;;;;1.24;100.00;101700.06;5003235;28;20084;-88
2022/12/07 01:52:22;;;;;;;28.17;13.13;;;;;;;1.28;100.00;101696.03;4992913;28;20801;-88
2022/12/07 01:54:50;;;;;;;33.55;12.95;;;;;;;1.42;100.00;101698.94;4992121;28;20026;-88
2022/12/07 01:57:17;;;;;;;29.50;13.23;;;;;;;1.43;100.00;101705.88;4974636;28;20478;-88
2022/12/07 01:59:44;;;;;;;31.40;13.77;;;;;;;1.45;100.00;101701.25;5000024;28;20500;-88
2022/12/07 02:02:31;;;;;;;26.75;12.60;;;;;;;1.45;100.00;101706.53;5011818;28;20157;-88
2022/12/07 02:04:59;;;;;;;24.70;12.05;;;;;;;1.46;100.00;101700.25;5011376;28;20057;-88
2022/12/07 02:07:26;;;;;;;28.10;12.70;;;;;;;1.42;100.00;101694.47;5011369;28;20026;-88
2022/12/07 02:09:52;;;;;;;27.90;12.27;;;;;;;1.35;100.00;101690.91;5010598;28;20652;-88
2022/12/07 02:12:17;;;;;;;23.17;11.95;;;;;;;1.21;100.00;101685.34;5010448;28;20024;-88
2022/12/07 02:14:43;;;;;;;23.37;10.83;;;;;;;1.07;100.00;101687.94;5004536;28;20117;-88
2022/12/07 02:17:23;;;;;;;22.42;10.93;;;;;;;0.93;100.00;101690.28;4991770;28;20490;-88
2022/12/07 02:20:21;;;;;;;18.90;9.97;;;;;;;0.79;100.00;101689.22;4993675;28;20022;-87
2022/12/07 02:23:08;;;;;;;20.02;9.38;;;;;;;0.70;100.00;101693.69;4991393;28;20126;-87
2022/12/07 02:25:58;;;;;;;24.90;10.23;;;;;;;0.59;100.00;101691.41;5010194;28;20068;-88
2022/12/07 02:28:39;;;;;;;21.70;10.95;;;;;;;0.57;100.00;101693.41;4995339;28;20604;-88
2022/12/07 02:31:12;;;;;;;28.63;10.85;;;;;;;0.50;100.00;101682.72;5007084;28;20022;-88
2022/12/07 02:33:49;;;;;;;27.13;11.07;;;;;;;0.48;100.00;101689.97;5011110;28;20059;-88
2022/12/07 02:36:20;;;;;;;21.83;10.95;;;;;;;0.42;100.00;101686.19;5011439;28;20026;-88
2022/12/07 02:38:58;;;;;;;20.93;10.60;;;;;;;0.33;100.00;101681.94;5010386;28;20408;-88
2022/12/07 02:41:51;;;;;;;23.37;10.93;;;;;;;0.29;100.00;101685.91;5009610;28;20323;-88
2022/12/07 02:44:21;;;;;;;24.67;11.50;;;;;;;0.29;100.00;101684.06;5010929;28;20022;-87
2022/12/07 02:47:02;;;;;;;26.27;11.48;;;;;;;0.30;100.00;101691.00;5009661;28;20109;-88
2022/12/07 02:49:35;;;;;;;30.48;12.15;;;;;;;0.29;100.00;101681.44;5010817;28;20080;-88
2022/12/07 02:52:00;;;;;;;23.08;11.05;;;;;;;0.35;100.00;101681.75;5008902;28;20022;-88
2022/12/07 02:54:25;;;;;;;27.40;12.50;;;;;;;0.41;100.00;101683.75;4993361;28;20026;-88
2022/12/07 02:57:12;;;;;;;26.80;12.07;;;;;;;0.49;100.00;101690.81;4973832;28;20129;-88
2022/12/07 02:59:43;;;;;;;27.52;12.48;;;;;;;0.53;100.00;101687.66;5008850;28;20034;-88
2022/12/07 03:02:17;;;;;;;20.40;11.90;;;;;;;0.54;100.00;101693.75;5010686;28;20026;-88
2022/12/07 03:04:58;;;;;;;32.70;13.48;;;;;;;0.52;100.00;101690.47;5007993;28;20038;-88
2022/12/07 03:07:41;;;;;;;28.95;12.75;;;;;;;0.45;100.00;101685.06;4989526;28;20119;-88
2022/12/07 03:10:22;;;;;;;26.45;12.48;;;;;;;0.40;100.00;101690.00;5000742;28;20517;-88
2022/12/07 03:13:03;;;;;;;22.53;11.73;;;;;;;0.37;100.00;101691.13;4993529;28;20121;-88
2022/12/07 03:15:39;;;;;;;25.77;11.40;;;;;;;0.35;100.00;101693.16;4973742;28;20391;-88
2022/12/07 03:18:05;;;;;;;32.13;12.73;;;;;;;0.40;100.00;101698.72;4989681;28;20398;-89
2022/12/07 03:20:33;;;;;;;30.70;12.20;;;;;;;0.44;100.00;101691.31;4993780;28;20028;-88
2022/12/07 03:22:59;;;;;;;28.65;12.68;;;;;;;0.51;100.00;101687.00;4990694;28;20058;-88
2022/12/07 03:25:26;;;;;;;28.60;12.50;;;;;;;0.54;100.00;101685.84;4991178;28;20038;-88
2022/12/07 03:28:00;;;;;;;29.65;11.95;;;;;;;0.50;100.00;101684.53;4983762;28;20037;-89
2022/12/07 03:30:35;;;;;;;26.93;11.97;;;;;;;0.41;100.00;101678.47;4991171;28;20026;-88
2022/12/07 03:33:15;;;;;;;29.70;11.33;;;;;;;0.38;100.00;101689.34;4990289;28;20278;-88
2022/12/07 03:35:47;;;;;;;25.45;11.35;;;;;;;0.45;100.00;101683.22;4989222;28;20083;-88
2022/12/07 03:38:18;;;;;;;22.55;10.68;;;;;;;0.46;100.00;101689.31;5001405;28;20033;-88
2022/12/07 03:40:50;;;;;;;25.95;11.30;;;;;;;0.44;100.00;101689.50;4983921;28;20034;-88
2022/12/07 03:43:17;;;;;;;33.60;12.43;;;;;;;0.47;100.00;101687.50;5006322;28;20457;-88
2022/12/07 03:45:48;;;;;;;32.38;13.23;;;;;;;0.55;100.00;101676.91;5010034;28;20385;-88
2022/12/07 03:49:01;;;;;;;26.90;12.85;;;;;;;0.70;100.00;101680.50;5009170;28;20022;-90
2022/12/07 03:52:10;;;;;;;26.13;12.60;;;;;;;0.81;100.00;101678.47;4963874;28;20474;-87
2022/12/07 03:55:01;;;;;;;28.35;13.05;;;;;;;0.92;100.00;101683.38;4990471;28;20050;-87
2022/12/07 03:57:29;;;;;;;28.88;12.45;;;;;;;0.97;100.00;101669.69;4990755;28;20049;-86
2022/12/07 03:59:56;;;;;;;38.92;13.32;;;;;;;1.08;100.00;101679.03;5007101;28;20045;-86
2022/12/07 04:02:23;;;;;;;27.02;13.07;;;;;;;1.15;100.00;101675.50;5009648;28;20030;-86
2022/12/07 04:04:49;;;;;;;29.55;13.02;;;;;;;1.23;100.00;101676.44;5008265;28;20081;-87
2022/12/07 04:07:14;;;;;;;35.47;12.93;;;;;;;1.25;100.00;101672.66;5009969;28;20460;-86
2022/12/07 04:09:39;;;;;;;34.50;13.27;;;;;;;1.30;100.00;101667.66;5008859;28;20036;-87
2022/12/07 04:12:05;;;;;;;28.33;12.35;;;;;;;1.34;100.00;101684.78;5009823;28;20034;-87
2022/12/07 04:14:30;;;;;;;24.13;11.37;;;;;;;1.32;100.00;101678.84;5007999;28;20032;-87
2022/12/07 04:16:58;;;;;;;33.63;11.83;;;;;;;1.38;100.00;101677.31;5007705;28;20494;-87
2022/12/07 04:19:26;;;;;;;28.15;11.45;;;;;;;1.38;100.00;101681.81;5009654;28;20030;-86
2022/12/07 04:21:51;;;;;;;27.52;11.02;;;;;;;1.38;100.00;101684.44;5004406;28;20030;-86
2022/12/07 04:24:17;;;;;;;25.97;10.70;;;;;;;1.35;100.00;101686.44;5009828;28;20037;-86
2022/12/07 04:26:43;;;;;;;21.05;9.65;;;;;;;1.33;100.00;101679.69;5002478;28;20042;-86
2022/12/07 04:29:10;;;;;;;20.35;10.43;;;;;;;1.26;100.00;101674.28;4998915;28;20022;-88
2022/12/07 04:31:36;;;;;;;26.92;9.77;;;;;;;1.32;100.00;101675.41;4998356;28;20041;-87
2022/12/07 04:34:03;;;;;;;25.10;9.35;;;;;;;1.35;100.00;101675.88;5012564;28;20038;-86
2022/12/07 04:36:29;;;;;;;19.93;9.73;;;;;;;1.39;100.00;101678.16;5012843;28;20037;-87
2022/12/07 04:38:55;;;;;;;25.87;9.77;;;;;;;1.43;100.00;101672.34;5012503;28;20302;-87
2022/12/07 04:41:26;;;;;;;32.13;10.02;;;;;;;1.43;100.00;101671.53;4993877;28;20117;-86
2022/12/07 04:44:03;;;;;;;29.98;10.25;;;;;;;1.44;100.00;101660.78;4992022;28;20034;-87
2022/12/07 04:46:30;;;;;;;22.63;8.88;;;;;;;1.46;100.00;101668.56;4992956;28;20029;-87
2022/12/07 04:48:56;;;;;;;25.63;9.48;;;;;;;1.47;100.00;101670.16;5011123;28;20061;-86
2022/12/07 04:51:24;;;;;;;23.53;10.57;;;;;;;1.47;100.00;101663.09;5011113;28;20072;-88
2022/12/07 04:53:50;;;;;;;25.98;9.48;;;;;;;1.49;100.00;101660.25;5010354;28;20029;-86
2022/12/07 04:56:16;;;;;;;25.25;10.52;;;;;;;1.42;100.00;101669.91;5008890;28;20036;-86
2022/12/07 04:58:43;;;;;;;25.63;10.20;;;;;;;1.36;100.00;101676.72;5007750;28;20033;-86
2022/12/07 05:01:09;;;;;;;21.23;10.30;;;;;;;1.24;100.00;101668.38;5001746;28;20060;-87
2022/12/07 05:03:36;;;;;;;27.02;10.20;;;;;;;1.11;100.00;101660.16;5007008;28;20493;-87
2022/12/07 05:06:01;;;;;;;20.80;9.40;;;;;;;1.00;100.00;101656.94;5010562;28;20033;-84
2022/12/07 05:08:26;;;;;;;20.90;9.43;;;;;;;0.92;100.00;101646.41;5007874;28;20311;-84
2022/12/07 05:10:52;;;;;;;22.70;9.57;;;;;;;0.91;100.00;101652.72;5010532;28;20445;-85
2022/12/07 05:13:17;;;;;;;27.30;10.70;;;;;;;0.85;100.00;101648.94;5010912;28;20034;-85
2022/12/07 05:15:44;;;;;;;24.13;9.43;;;;;;;0.79;100.00;101651.44;4993170;28;20453;-86
2022/12/07 05:18:12;;;;;;;25.10;9.98;;;;;;;0.69;100.00;101649.84;4992688;28;20034;-86
2022/12/07 05:20:38;;;;;;;21.75;10.23;;;;;;;0.64;100.00;101651.34;5010020;28;20493;-86
2022/12/07 05:23:04;;;;;;;21.63;9.73;;;;;;;0.61;100.00;101657.78;5011304;28;20037;-85
2022/12/07 05:25:29;;;;;;;18.50;9.90;;;;;;;0.54;100.00;101652.38;5010565;28;20038;-85
2022/12/07 05:27:55;;;;;;;25.87;9.43;;;;;;;0.50;100.00;101651.06;5010743;28;20049;-85
2022/12/07 05:30:21;;;;;;;19.88;9.18;;;;;;;0.42;100.00;101646.63;5010930;28;20033;-86
2022/12/07 05:32:46;;;;;;;22.47;10.10;;;;;;;0.38;100.00;101650.59;5011816;28;20497;-86
2022/12/07 05:35:11;;;;;;;21.27;9.47;;;;;;;0.37;100.00;101654.22;5011708;28;20026;-86
2022/12/07 05:37:37;;;;;;;27.00;10.13;;;;;;;0.36;100.00;101657.03;5011321;28;20157;-86
2022/12/07 05:40:03;;;;;;;23.93;10.07;;;;;;;0.34;100.00;101651.94;5009953;28;20389;-86
2022/12/07 05:42:29;;;;;;;22.90;10.02;;;;;;;0.33;100.00;101665.28;5011783;28;20025;-86
2022/12/07 05:44:55;;;;;;;16.10;9.03;;;;;;;0.27;100.00;101654.41;5011058;28;20441;-86
2022/12/07 05:47:21;;;;;;;19.90;9.38;;;;;;;0.18;100.00;101652.00;5011338;28;20026;-86
2022/12/07 05:49:46;;;;;;;27.87;9.23;;;;;;;0.06;100.00;101648.88;5007856;28;20060;-86
2022/12/07 05:52:11;;;;;;;16.63;8.47;;;;;;;-0.03;100.00;101640.16;5011168;28;20065;-85
2022/12/07 05:54:36;;;;;;;25.40;8.27;;;;;;;-0.09;100.00;101640.81;5011987;28;20018;-85
2022/12/07 05:57:02;;;;;;;19.85;8.80;;;;;;;-0.17;100.00;101639.84;5011232;28;20107;-85
2022/12/07 05:59:28;;;;;;;22.37;8.20;;;;;;;-0.23;100.00;101637.03;5011235;28;20117;-85
2022/12/07 06:02:02;;;;;;;17.40;8.85;;;;;;;-0.26;100.00;101642.63;4976717;28;20014;-86
2022/12/07 06:04:31;;;;;;;17.33;8.63;;;;;;;-0.25;100.00;101639.84;5011083;28;20552;-85
2022/12/07 06:06:57;;;;;;;18.50;8.80;;;;;;;-0.27;100.00;101644.47;5009293;28;20030;-85
2022/12/07 06:09:28;;;;;;;18.03;8.37;;;;;;;-0.36;100.00;101645.44;5010207;28;20030;-86
2022/12/07 06:14:38;;;;;;;14.75;8.27;;;;;;;-0.53;100.00;101648.06;5012024;28;20095;-85
2022/12/07 06:17:04;;;;;;;12.10;8.23;;;;;;;-0.56;100.00;101647.59;5011003;28;20030;-85
2022/12/07 06:19:29;;;;;;;16.25;7.93;;;;;;;-0.56;100.00;101651.06;5014048;28;20029;-87
2022/12/07 06:21:55;;;;;;;16.00;8.17;;;;;;;-0.62;100.00;101644.63;5009641;28;20029;-86
2022/12/07 06:24:21;;;;;;;18.07;8.50;;;;;;;-0.64;100.00;101645.78;5010685;28;20618;-86
2022/12/07 06:26:46;;;;;;;23.00;8.87;;;;;;;-0.68;100.00;101649.72;5010213;28;20788;-86
2022/12/07 06:29:12;;;;;;;19.17;9.25;;;;;;;-0.69;100.00;101646.28;5009954;28;20591;-86
2022/12/07 06:31:38;;;;;;;24.07;9.43;;;;;;;-0.68;100.00;101642.66;5004808;28;20474;-87
2022/12/07 06:34:06;;;;;;;18.83;8.88;;;;;;;-0.64;100.00;101653.66;4991727;28;20057;-87
2022/12/07 06:36:32;;;;;;;26.85;9.27;;;;;;;-0.59;100.00;101645.28;4997656;28;20084;-87
2022/12/07 06:38:58;;;;;;;21.67;9.00;;;;;;;-0.46;100.00;101656.16;5008590;28;20120;-87
2022/12/07 06:41:24;;;;;;;17.10;8.80;;;;;;;-0.34;100.00;101657.47;5007944;28;20512;-87
2022/12/07 06:43:49;;;;;;;20.30;9.73;;;;;;;-0.17;100.00;101647.75;4996130;28;20219;-87
2022/12/07 06:46:15;;;;;;;26.53;10.13;;;;;;;-0.06;100.00;101657.13;5009167;28;20037;-87
2022/12/07 06:48:41;;;;;;;24.90;11.18;;;;;;;0.01;100.00;101645.91;5009529;28;20034;-88
2022/12/07 06:51:07;;;;;;;29.80;11.25;;;;;;;0.14;100.00;101651.50;4990232;28;20069;-88
2022/12/07 06:53:32;;;;;;;26.25;11.35;;;;;;;0.26;100.00;101651.97;5005933;28;20030;-87
2022/12/07 06:55:58;;;;;;;39.67;11.63;;;;;;;0.29;100.00;101643.72;5003407;28;20105;-87
2022/12/07 06:58:26;;;;;;;35.27;12.53;;;;;;;0.38;100.00;101650.59;5010718;28;20076;-87
2022/12/07 07:00:51;;;;;;;36.10;13.38;;;;;;;0.40;100.00;101653.91;5008911;28;20065;-87
2022/12/07 07:03:17;;;;;;;36.73;11.73;;;;;;;0.34;100.00;101649.31;5009741;28;20049;-86
2022/12/07 07:05:43;;;;;;;30.53;11.80;;;;;;;0.29;100.00;101647.16;5008027;28;20037;-88
2022/12/07 07:08:08;;;;;;;34.97;11.20;;;;;;;0.25;100.00;101648.50;5009792;28;20577;-88
2022/12/07 07:10:35;;;;;;;30.98;10.98;;;;;;;0.20;100.00;101650.00;5002679;28;20176;-87
2022/12/07 07:13:00;;;;;;;24.90;9.27;;;;;;;0.20;100.00;101660.53;4988823;28;20076;-87
2022/12/07 07:15:26;;;;;;;21.13;9.00;;;;;;;0.18;100.00;101663.34;4984708;28;20297;-87
2022/12/07 07:17:51;;;;;;;23.43;9.47;;;;;;;0.12;100.00;101664.84;4999917;28;20113;-87
2022/12/07 07:20:17;;;;;;;25.07;8.97;;;;;;;0.09;100.00;101667.00;5006777;28;20560;-87
2022/12/07 07:22:43;;;;;;;21.27;9.43;;;;;;;0.09;100.00;101667.81;5007168;28;20133;-86
2022/12/07 07:25:08;;;;;;;21.73;8.87;;;;;;;0.07;100.00;101671.63;4985150;28;20033;-86
2022/12/07 07:27:34;;;;;;;18.45;8.32;;;;;;;0.01;100.00;101670.44;5008265;28;20503;-86
2022/12/07 07:29:59;;;;;;;21.57;8.73;;;;;;;-0.06;100.00;101670.28;5008431;28;20388;-87
2022/12/07 07:32:24;;;;;;;25.07;9.17;;;;;;;-0.11;100.00;101666.50;5007405;28;20049;-87
2022/12/07 07:34:50;;;;;;;23.80;10.13;;;;;;;-0.10;100.00;101660.25;5009090;28;20022;-87
2022/12/07 07:37:15;;;;;;;34.83;12.40;;;;;;;-0.04;100.00;101659.59;5004567;28;20034;-86
2022/12/07 07:39:41;;;;;;;33.20;12.33;;;;;;;0.12;100.00;101672.75;5006973;28;20033;-86
2022/12/07 07:42:07;;;;;;;30.97;12.77;;;;;;;0.18;100.00;101658.06;5019514;28;20526;-86
2022/12/07 07:44:33;;;;;;;29.75;11.43;;;;;;;0.26;100.00;101665.16;5009770;28;20033;-87
2022/12/07 07:46:58;;;;;;;25.48;11.10;;;;;;;0.29;100.00;101664.81;4995160;28;20081;-86
2022/12/07 07:49:25;;;;;;;33.70;12.60;;;;;;;0.34;100.00;101667.78;5005878;28;20041;-87
2022/12/07 07:51:51;;;;;;;35.90;13.10;;;;;;;0.36;100.00;101670.22;5006513;28;20053;-87
2022/12/07 07:54:16;;;;;;;34.50;13.50;;;;;;;0.40;100.00;101675.00;5009752;28;20026;-87
2022/12/07 07:56:41;;;;;;;34.30;13.87;;;;;;;0.43;100.00;101674.66;5010029;28;20018;-87
2022/12/07 07:59:07;;;;;;;36.70;13.83;;;;;;;0.47;100.00;101669.84;5010287;28;20022;-87
2022/12/07 08:01:32;;;;;;;30.33;12.70;;;;;;;0.48;100.00;101668.88;5008642;28;20452;-88
2022/12/07 08:03:57;;;;;;;32.42;12.40;;;;;;;0.48;100.00;101660.94;5012237;28;20880;-88
2022/12/07 08:06:23;;;;;;;26.43;11.70;;;;;;;0.52;100.00;101664.91;5013987;28;20026;-87
2022/12/07 08:08:50;;;;;;;32.70;11.90;;;;;;;0.53;100.00;101671.00;5012646;28;20505;-87
2022/12/07 08:11:16;;;;;;;30.92;11.60;;;;;;;0.48;100.00;101665.41;4994264;28;20033;-86
2022/12/07 08:13:41;;;;;;;23.90;10.47;;;;;;;0.41;100.00;101668.72;5012422;28;20042;-88
2022/12/07 08:16:09;;;;;;;25.55;10.10;;;;;;;0.37;100.00;101670.03;5002446;28;20021;-87
2022/12/07 08:18:39;;;;;;;29.17;9.77;;;;;;;0.35;100.00;101674.69;5011564;28;20037;-87
2022/12/07 08:21:06;;;;;;;30.17;9.77;;;;;;;0.28;100.00;101682.44;5012642;28;20505;-87
2022/12/07 08:23:33;;;;;;;22.70;9.63;;;;;;;0.26;100.00;101683.59;5013312;28;20374;-87
2022/12/07 08:26:03;;;;;;;22.65;10.27;;;;;;;0.22;100.00;101692.81;5013049;28;20424;-87
2022/12/07 08:28:30;;;;;;;24.48;10.25;;;;;;;0.24;100.00;101694.31;5008555;28;20030;-87
2022/12/07 08:31:06;;;;;;;29.10;11.45;;;;;;;0.33;100.00;101692.50;5010461;28;20490;-87
2022/12/07 08:33:35;;;;;;;30.25;11.25;;;;;;;0.45;100.00;101688.50;5010488;28;20037;-86
2022/12/07 08:36:08;;;;;;;27.27;11.67;;;;;;;0.65;100.00;101692.53;5011898;28;20055;-87
2022/12/07 08:38:37;;;;;;;32.27;13.27;;;;;;;0.85;100.00;101692.97;5008728;28;20296;-86
2022/12/07 08:41:03;;;;;;;40.20;13.70;;;;;;;1.02;100.00;101688.44;5010014;28;20612;-86
2022/12/07 08:43:28;;;;;;;36.88;14.50;;;;;;;1.15;100.00;101696.63;5012743;28;20117;-86
2022/12/07 08:46:07;;;;;;;35.87;14.50;;;;;;;1.26;100.00;101699.88;5012566;28;20469;-86
2022/12/07 08:48:35;;;;;;;41.63;15.23;;;;;;;1.44;100.00;101697.78;5012993;28;20026;-86
2022/12/07 08:51:02;;;;;;;39.78;16.20;;;;;;;1.56;100.00;101703.47;5012371;28;20022;-86
2022/12/07 08:53:28;;;;;;;39.93;15.67;;;;;;;1.60;100.00;101686.28;5012824;28;20629;-87
2022/12/07 08:55:56;;;;;;;42.07;15.53;;;;;;;1.70;100.00;101688.69;4993763;28;20695;-87
2022/12/07 08:58:22;;;;;;;40.53;15.48;;;;;;;1.76;100.00;101693.25;5003211;28;20052;-86
2022/12/07 09:00:47;;;;;;;35.10;14.48;;;;;;;1.78;100.00;101687.78;5012493;28;20124;-86
2022/12/07 09:03:12;;;;;;;46.63;14.50;;;;;;;1.84;100.00;101688.91;4995766;28;20030;-86
2022/12/07 09:05:38;;;;;;;27.77;13.67;;;;;;;1.89;100.00;101692.63;5012795;28;20053;-86
2022/12/07 09:08:03;;;;;;;41.22;13.52;;;;;;;1.92;100.00;101686.16;5012219;28;20028;-86
2022/12/07 09:10:29;;;;;;;37.20;13.57;;;;;;;1.92;100.00;101680.88;5009561;28;20033;-86
2022/12/07 09:12:54;;;;;;;37.67;12.32;;;;;;;1.89;100.00;101682.06;5001906;28;20038;-88
2022/12/07 09:15:20;;;;;;;28.67;11.37;;;;;;;1.92;100.00;101687.00;5005385;28;20026;-87
2022/12/07 09:17:45;;;;;;;34.77;12.73;;;;;;;1.99;100.00;101689.75;5008041;28;20036;-87
2022/12/07 09:20:11;;;;;;;31.88;11.02;;;;;;;2.05;100.00;101690.84;5008254;28;20029;-87
2022/12/07 09:22:37;;;;;;;31.27;11.43;;;;;;;2.12;100.00;101691.78;5011157;28;20041;-88
2022/12/07 09:25:04;;;;;;;32.72;10.93;;;;;;;2.16;100.00;101690.44;5011581;28;20595;-88
2022/12/07 09:27:30;;;;;;;25.77;10.52;;;;;;;2.12;100.00;101681.22;5002703;28;20042;-88
2022/12/07 09:29:55;;;;;;;27.13;10.25;;;;;;;2.02;100.00;101681.47;5009395;28;20049;-88
2022/12/07 09:32:21;;;;;;;20.30;9.73;;;;;;;1.88;100.00;101683.06;5008066;28;20080;-88
2022/12/07 09:34:46;;;;;;;25.58;9.23;;;;;;;1.75;100.00;101685.50;4993069;28;20411;-89
2022/12/07 09:37:12;;;;;;;26.47;9.07;;;;;;;1.64;100.00;101689.38;5009824;28;20662;-88
2022/12/07 09:39:38;;;;;;;26.87;8.43;;;;;;;1.52;100.00;101691.59;5011000;28;20421;-88
2022/12/07 09:42:07;;;;;;;22.10;8.27;;;;;;;1.46;100.00;101687.03;5011230;28;20022;-88
2022/12/07 09:44:34;;;;;;;26.92;8.38;;;;;;;1.42;100.00;101701.59;5005511;28;20078;-88
2022/12/07 09:47:02;;;;;;;26.80;8.98;;;;;;;1.41;100.00;101694.66;5010380;28;20062;-88
2022/12/07 09:49:31;;;;;;;29.73;9.17;;;;;;;1.40;100.00;101687.75;5008261;28;20123;-88
2022/12/07 09:52:01;;;;;;;22.80;8.90;;;;;;;1.43;100.00;101692.69;5009474;28;20796;-88
2022/12/07 09:54:28;;;;;;;26.20;9.27;;;;;;;1.46;100.00;101693.13;4993519;28;20033;-87
2022/12/07 09:56:54;;;;;;;32.28;10.30;;;;;;;1.52;100.00;101688.97;5011505;28;20497;-88
2022/12/07 09:59:19;;;;;;;26.80;9.80;;;;;;;1.59;100.00;101682.00;5008877;28;20119;-88
2022/12/07 10:01:48;;;;;;;25.80;9.77;;;;;;;1.65;100.00;101683.91;4992952;28;20061;-87
2022/12/07 10:04:21;;;;;;;27.65;9.75;;;;;;;1.65;100.00;101681.25;4978997;28;20034;-89
2022/12/07 10:06:48;;;;;;;28.95;9.40;;;;;;;1.67;100.00;101689.03;5004212;28;20029;-90
2022/12/07 10:09:16;;;;;;;23.38;9.02;;;;;;;1.73;100.00;101676.91;5010876;28;20053;-89
2022/12/07 10:12:09;;;;;;;28.13;9.00;;;;;;;1.80;100.00;101670.75;5009582;28;20044;-90
2022/12/07 10:14:37;;;;;;;22.70;8.32;;;;;;;1.92;100.00;101663.22;5009623;28;20034;-89
2022/12/07 10:17:22;;;;;;;28.25;8.93;;;;;;;2.11;100.00;101666.34;5010302;28;20053;-89
2022/12/07 10:19:48;;;;;;;34.70;9.57;;;;;;;2.29;100.00;101660.69;5009765;28;20034;-88
2022/12/07 10:22:16;;;;;;;30.07;9.47;;;;;;;2.48;100.00;101658.50;5008459;28;20418;-89
2022/12/07 10:24:43;;;;;;;24.67;8.93;;;;;;;2.65;100.00;101661.78;5009853;28;20046;-88
2022/12/07 10:27:21;;;;;;;31.30;9.50;;;;;;;2.76;100.00;101661.31;5003329;28;20389;-88
2022/12/07 10:29:49;;;;;;;30.15;9.15;;;;;;;2.79;100.00;101655.66;5005980;28;20104;-88
2022/12/07 10:32:15;;;;;;;26.05;9.70;;;;;;;2.81;100.00;101653.63;5010786;28;20034;-88
2022/12/07 10:34:41;;;;;;;25.43;9.43;;;;;;;2.84;100.00;101647.97;5010638;28;20018;-87
2022/12/07 10:37:17;;;;;;;21.05;9.07;;;;;;;2.91;100.00;101645.41;5010295;28;20496;-88
2022/12/07 10:39:53;;;;;;;26.65;9.63;;;;;;;3.00;100.00;101648.75;4993949;28;20113;-89
2022/12/07 10:42:20;;;;;;;27.15;10.57;;;;;;;3.09;100.00;101645.00;4991897;28;20088;-87
2022/12/07 10:44:46;;;;;;;28.77;10.50;;;;;;;3.22;100.00;101643.47;4999585;28;20036;-87
2022/12/07 10:49:53;;;;;;;33.93;11.17;;;;;;;3.39;100.00;101644.88;5042996;22;20312;-88
2022/12/07 10:52:54;;;;;;;24.33;10.98;;;;;;;3.58;100.00;101642.59;5011504;28;20026;-87
2022/12/07 10:55:47;;;;;;;31.33;11.90;;;;;;;3.83;100.00;101640.34;4954869;28;20030;-87
2022/12/07 10:58:40;;;;;;;31.77;11.68;;;;;;;4.07;100.00;101640.94;5010965;28;20030;-89
2022/12/07 11:01:29;;;;;;;30.67;11.70;;;;;;;4.17;100.00;101629.97;5174089;22;20077;-88
2022/12/07 11:04:35;;;;;;;29.13;12.07;;;;;;;4.25;100.00;101632.44;5030627;28;20095;-88
2022/12/07 11:07:20;;;;;;;28.17;11.85;;;;;;;4.38;100.00;101621.91;5033585;28;20370;-88
2022/12/07 11:09:54;;;;;;;23.00;11.77;;;;;;;4.50;100.00;101624.81;5028299;28;20044;-88
2022/12/07 11:12:43;;;;;;;24.27;10.13;;;;;;;4.58;100.00;101621.16;5030670;28;20386;-88
2022/12/07 11:15:37;;;;;;;29.70;9.73;;;;;;;4.55;100.00;101611.78;5032428;28;20021;-88
2022/12/07 11:18:06;;;;;;;19.98;8.10;;;;;;;4.54;100.00;101612.78;5033184;28;20075;-87
2022/12/07 11:20:49;;;;;;;15.13;7.50;;;;;;;4.56;100.00;101609.97;5012902;28;20516;-88
2022/12/07 11:23:39;;;;;;;15.70;6.90;;;;;;;4.66;100.00;101613.06;5018649;28;20034;-89
2022/12/07 11:26:31;;;;;;;19.42;6.35;;;;;;;4.74;100.00;101609.41;5013845;28;20029;-88
2022/12/07 11:29:30;;;;;;;16.48;6.55;;;;;;;4.84;100.00;101607.16;5031190;28;20029;-88